Time;durP1;ratioP1;P1;durP2;ratioP2;P2;SDS_P1;SDS_P2;PMS_P1;PMS_P2;Temp;Humidity;BMP_temperature;BMP_pressure;BME280_temperature;BME280_humidity;BME280_pressure;Samples;Min_cycle;Max_cycle;Signal;HPM_P1;HPM_P2
2020/12/11 00:01:31;;;;;;;55.20;21.88;;;;;;;-0.73;100.00;100030.03;4968856;28;20043;-67
2020/12/11 00:03:57;;;;;;;52.88;21.27;;;;;;;-0.73;100.00;100016.88;4968305;28;20042;-68
2020/12/11 00:06:23;;;;;;;49.53;21.33;;;;;;;-0.66;100.00;100024.19;4968251;28;20038;-67
2020/12/11 00:08:49;;;;;;;45.83;19.75;;;;;;;-0.63;100.00;100010.81;4967779;28;20117;-67
2020/12/11 00:11:14;;;;;;;51.38;21.55;;;;;;;-0.62;100.00;100012.47;4968791;28;20074;-67
2020/12/11 00:13:40;;;;;;;51.85;21.13;;;;;;;-0.61;100.00;100003.59;4967629;28;20101;-67
2020/12/11 00:16:06;;;;;;;47.78;19.75;;;;;;;-0.61;100.00;99997.50;4968863;28;20181;-67
2020/12/11 00:18:31;;;;;;;53.20;22.50;;;;;;;-0.57;100.00;100001.59;4967507;28;20062;-67
2020/12/11 00:20:59;;;;;;;52.38;20.55;;;;;;;-0.53;100.00;99997.78;4968983;28;20058;-67
2020/12/11 00:23:26;;;;;;;49.47;20.50;;;;;;;-0.54;100.00;100004.00;4967574;28;20030;-67
2020/12/11 00:25:58;;;;;;;52.65;20.52;;;;;;;-0.56;100.00;99990.09;4949327;28;595643;-67
2020/12/11 00:28:28;;;;;;;51.70;20.90;;;;;;;-0.56;100.00;99979.56;4968483;28;20114;-67
2020/12/11 00:30:54;;;;;;;50.65;21.05;;;;;;;-0.59;100.00;99978.00;4969490;28;20121;-67
2020/12/11 00:33:21;;;;;;;48.53;20.27;;;;;;;-0.62;100.00;99969.50;4968200;28;20031;-67
2020/12/11 00:35:46;;;;;;;48.88;19.75;;;;;;;-0.66;100.00;99970.66;4970468;28;20066;-67
2020/12/11 00:38:12;;;;;;;52.80;20.50;;;;;;;-0.68;100.00;99964.69;4971765;28;20069;-67
2020/12/11 00:40:38;;;;;;;45.83;18.98;;;;;;;-0.71;100.00;99962.28;4973496;28;20058;-67
2020/12/11 00:43:04;;;;;;;50.47;20.50;;;;;;;-0.76;100.00;99957.34;4972168;28;20375;-67
2020/12/11 00:45:29;;;;;;;48.38;20.40;;;;;;;-0.81;100.00;99962.13;4973455;28;20504;-67
2020/12/11 00:47:55;;;;;;;48.28;19.10;;;;;;;-0.84;100.00;99955.31;4971446;28;20475;-67
2020/12/11 00:50:20;;;;;;;50.67;20.38;;;;;;;-0.88;100.00;99961.75;4973157;28;20046;-67
2020/12/11 00:52:46;;;;;;;54.47;20.50;;;;;;;-0.93;100.00;99944.63;4972360;28;20038;-67
2020/12/11 00:55:11;;;;;;;51.00;19.90;;;;;;;-0.96;100.00;99940.41;4973062;28;20041;-67
2020/12/11 00:57:37;;;;;;;54.72;19.88;;;;;;;-0.95;100.00;99939.47;4971632;28;20121;-67
2020/12/11 01:00:06;;;;;;;49.20;20.13;;;;;;;-0.96;100.00;99937.78;4972947;28;20027;-67
2020/12/11 01:02:31;;;;;;;50.67;20.40;;;;;;;-0.99;100.00;99932.75;4972687;28;20487;-67
2020/12/11 01:04:57;;;;;;;49.40;19.77;;;;;;;-0.98;100.00;99937.06;4972304;28;20045;-67
2020/12/11 01:07:22;;;;;;;50.05;20.77;;;;;;;-1.03;100.00;99936.56;4972009;28;20363;-67
2020/12/11 01:09:48;;;;;;;51.40;20.13;;;;;;;-1.04;100.00;99929.63;4972426;28;20042;-67
2020/12/11 01:12:13;;;;;;;49.65;19.85;;;;;;;-1.07;100.00;99906.16;4971944;28;20615;-67
2020/12/11 01:14:39;;;;;;;51.53;20.30;;;;;;;-1.12;100.00;99897.78;4972501;28;20030;-67
2020/12/11 01:17:04;;;;;;;50.47;20.27;;;;;;;-1.14;100.00;99894.44;4971946;28;20054;-68
2020/12/11 01:19:30;;;;;;;52.25;20.38;;;;;;;-1.15;100.00;99885.69;4972410;28;20191;-67
2020/12/11 01:21:55;;;;;;;47.47;19.13;;;;;;;-1.13;100.00;99875.03;4972460;28;20137;-67
2020/12/11 01:24:21;;;;;;;46.63;19.60;;;;;;;-1.15;100.00;99867.28;4972042;28;20023;-67
2020/12/11 01:26:47;;;;;;;50.05;19.13;;;;;;;-1.15;100.00;99866.44;4971955;28;20101;-67
2020/12/11 01:29:12;;;;;;;55.08;20.75;;;;;;;-1.18;100.00;99851.69;4972085;28;20031;-67
2020/12/11 01:31:38;;;;;;;54.28;20.50;;;;;;;-1.21;100.00;99841.38;4972398;28;20388;-67
2020/12/11 01:34:03;;;;;;;50.55;19.83;;;;;;;-1.23;100.00;99845.09;4971826;28;20035;-67
2020/12/11 01:36:29;;;;;;;51.55;22.08;;;;;;;-1.26;100.00;99850.59;4972474;28;20555;-67
2020/12/11 01:38:54;;;;;;;48.10;21.33;;;;;;;-1.25;100.00;99849.66;4972335;28;20380;-67
2020/12/11 01:41:21;;;;;;;54.13;21.23;;;;;;;-1.31;100.00;99845.66;4972441;28;20138;-67
2020/12/11 01:43:46;;;;;;;46.92;19.38;;;;;;;-1.33;100.00;99842.31;4972333;28;20041;-67
2020/12/11 01:46:15;;;;;;;52.88;20.30;;;;;;;-1.36;100.00;99832.00;4971986;28;20113;-67
2020/12/11 01:48:40;;;;;;;48.63;20.27;;;;;;;-1.36;100.00;99827.59;4972098;28;20026;-67
2020/12/11 01:51:06;;;;;;;54.97;21.13;;;;;;;-1.36;100.00;99826.75;4971700;28;20394;-67
2020/12/11 01:53:33;;;;;;;53.00;21.38;;;;;;;-1.35;100.00;99820.56;4971413;28;20053;-67
2020/12/11 01:56:01;;;;;;;49.05;19.30;;;;;;;-1.37;100.00;99818.03;4971907;28;20491;-67
2020/12/11 01:58:31;;;;;;;51.22;20.40;;;;;;;-1.38;100.00;99805.81;4971021;28;20027;-67
2020/12/11 02:01:00;;;;;;;53.05;21.35;;;;;;;-1.38;100.00;99803.19;4971256;28;20053;-67
2020/12/11 02:03:26;;;;;;;52.25;20.27;;;;;;;-1.34;100.00;99809.06;4971699;28;20054;-67
2020/12/11 02:05:51;;;;;;;54.85;20.73;;;;;;;-1.30;100.00;99805.25;4986952;28;20037;-67
2020/12/11 02:08:17;;;;;;;52.40;20.77;;;;;;;-1.27;100.00;99807.66;4972173;28;20030;-67
2020/12/11 02:10:46;;;;;;;50.53;20.30;;;;;;;-1.27;100.00;99798.91;4971786;28;20031;-67
2020/12/11 02:13:12;;;;;;;44.22;19.13;;;;;;;-1.25;100.00;99807.56;4972338;28;20031;-67
2020/12/11 02:15:38;;;;;;;48.13;19.10;;;;;;;-1.27;100.00;99815.53;4971318;28;20118;-67
2020/12/11 02:18:04;;;;;;;46.30;19.27;;;;;;;-1.26;100.00;99811.94;4972104;28;20037;-67
2020/12/11 02:20:30;;;;;;;47.25;19.92;;;;;;;-1.22;100.00;99802.03;4971861;28;20113;-67
2020/12/11 02:22:55;;;;;;;53.28;21.50;;;;;;;-1.15;100.00;99812.00;4972276;28;20491;-67
2020/12/11 02:25:22;;;;;;;50.97;19.60;;;;;;;-1.05;100.00;99805.06;4971699;28;20122;-67
2020/12/11 02:27:48;;;;;;;48.50;20.17;;;;;;;-0.90;100.00;99808.31;4971033;28;20026;-67
2020/12/11 02:30:14;;;;;;;52.63;19.92;;;;;;;-0.76;100.00;99793.22;4970411;28;20495;-66
2020/12/11 02:32:40;;;;;;;42.28;18.20;;;;;;;-0.70;100.00;99788.34;4971588;28;20042;-66
2020/12/11 02:35:05;;;;;;;43.20;18.10;;;;;;;-0.67;100.00;99781.97;4971069;28;20042;-66
2020/12/11 02:37:33;;;;;;;41.80;18.15;;;;;;;-0.71;100.00;99778.72;4970908;28;20042;-66
2020/12/11 02:39:58;;;;;;;39.05;17.92;;;;;;;-0.71;100.00;99780.53;4971591;28;20085;-66
2020/12/11 02:42:24;;;;;;;43.55;18.98;;;;;;;-0.72;100.00;99773.59;4971570;28;20085;-66
2020/12/11 02:44:50;;;;;;;42.00;17.73;;;;;;;-0.73;100.00;99761.38;4966558;28;20035;-66
2020/12/11 02:47:16;;;;;;;44.22;17.73;;;;;;;-0.79;100.00;99760.09;4962334;28;20088;-66
2020/12/11 02:49:55;;;;;;;42.67;17.50;;;;;;;-0.81;100.00;99756.72;4970889;28;20038;-67
2020/12/11 02:52:21;;;;;;;37.17;17.88;;;;;;;-0.81;100.00;99754.91;4971092;28;20034;-67
2020/12/11 02:54:51;;;;;;;40.85;18.02;;;;;;;-0.79;100.00;99737.22;4970834;28;20039;-67
2020/12/11 02:57:17;;;;;;;41.95;17.45;;;;;;;-0.75;100.00;99732.56;4970176;28;20031;-67
2020/12/11 02:59:43;;;;;;;42.75;17.33;;;;;;;-0.67;100.00;99731.94;4957483;28;20042;-66
2020/12/11 03:02:08;;;;;;;37.42;17.42;;;;;;;-0.59;100.00;99724.25;4970933;28;20039;-67
2020/12/11 03:04:34;;;;;;;41.47;18.48;;;;;;;-0.49;100.00;99716.47;4967838;28;20026;-67
2020/12/11 03:07:01;;;;;;;38.38;17.55;;;;;;;-0.42;100.00;99713.19;4968708;28;20113;-67
2020/12/11 03:09:27;;;;;;;38.28;17.17;;;;;;;-0.34;100.00;99710.78;4970388;28;20039;-67
2020/12/11 03:11:52;;;;;;;38.30;16.85;;;;;;;-0.26;100.00;99705.72;4970102;28;20026;-66
2020/12/11 03:14:18;;;;;;;34.72;15.40;;;;;;;-0.19;100.00;99697.31;4970387;28;20041;-67
2020/12/11 03:16:44;;;;;;;35.92;15.75;;;;;;;-0.12;100.00;99688.78;4970259;28;20058;-67
2020/12/11 03:19:09;;;;;;;36.20;16.95;;;;;;;-0.03;100.00;99676.63;4970537;28;20049;-67
2020/12/11 03:21:35;;;;;;;39.08;16.35;;;;;;;0.01;100.00;99679.88;4985074;28;20077;-67
2020/12/11 03:24:01;;;;;;;38.95;17.15;;;;;;;0.06;100.00;99675.88;4970428;28;20037;-67
2020/12/11 03:26:26;;;;;;;32.97;14.98;;;;;;;0.07;100.00;99667.00;4969464;28;20039;-67
2020/12/11 03:28:52;;;;;;;41.15;16.13;;;;;;;0.09;100.00;99665.06;4970461;28;20122;-67
2020/12/11 03:31:18;;;;;;;35.42;16.67;;;;;;;0.13;100.00;99660.38;4970139;28;20039;-67
2020/12/11 03:33:45;;;;;;;40.42;16.73;;;;;;;0.15;100.00;99653.16;4969982;28;20503;-67
2020/12/11 03:36:10;;;;;;;36.03;14.80;;;;;;;0.18;100.00;99640.56;4969854;28;20487;-67
2020/12/11 03:38:36;;;;;;;35.35;15.65;;;;;;;0.22;100.00;99635.88;4969831;28;20543;-67
2020/12/11 03:41:02;;;;;;;40.20;15.98;;;;;;;0.22;100.00;99634.06;4969203;28;20077;-67
2020/12/11 03:43:27;;;;;;;36.25;15.85;;;;;;;0.28;100.00;99624.78;4985208;28;20502;-67
2020/12/11 03:45:53;;;;;;;35.88;14.40;;;;;;;0.31;100.00;99623.72;4957471;28;20038;-67
2020/12/11 03:48:18;;;;;;;35.42;15.65;;;;;;;0.32;100.00;99620.09;4969964;28;20447;-67
2020/12/11 03:50:46;;;;;;;38.60;15.98;;;;;;;0.33;100.00;99613.84;4969647;28;20089;-67
2020/12/11 03:53:12;;;;;;;33.90;15.25;;;;;;;0.34;100.00;99611.06;4969900;28;20506;-67
2020/12/11 03:55:37;;;;;;;36.40;15.77;;;;;;;0.39;100.00;99608.03;4969667;28;20030;-67
2020/12/11 03:58:03;;;;;;;34.38;15.68;;;;;;;0.43;100.00;99599.72;4969791;28;20034;-67
2020/12/11 04:00:28;;;;;;;33.38;14.40;;;;;;;0.51;100.00;99591.16;4969351;28;20038;-67
2020/12/11 04:02:54;;;;;;;38.22;14.77;;;;;;;0.56;100.00;99588.97;4969872;28;20031;-68
2020/12/11 04:05:19;;;;;;;35.40;15.25;;;;;;;0.54;100.00;99580.31;4969219;28;20054;-67
2020/12/11 04:07:45;;;;;;;36.97;15.35;;;;;;;0.58;100.00;99573.00;4969575;28;20073;-67
2020/12/11 04:10:10;;;;;;;37.13;16.83;;;;;;;0.59;100.00;99574.66;4968721;28;20042;-67
2020/12/11 04:12:36;;;;;;;39.75;16.23;;;;;;;0.59;100.00;99557.00;4969326;28;20042;-67
2020/12/11 04:15:02;;;;;;;34.20;15.52;;;;;;;0.63;100.00;99558.41;4969981;28;20046;-67
2020/12/11 04:17:28;;;;;;;31.88;14.75;;;;;;;0.66;100.00;99560.81;4969047;28;20086;-67
2020/12/11 04:19:53;;;;;;;32.75;14.93;;;;;;;0.67;100.00;99551.06;4970111;28;20612;-67
2020/12/11 04:22:19;;;;;;;34.58;15.80;;;;;;;0.68;100.00;99544.81;4968810;28;20439;-67
2020/12/11 04:24:44;;;;;;;34.85;14.77;;;;;;;0.70;100.00;99542.88;4969311;28;20042;-67
2020/12/11 04:27:10;;;;;;;35.17;15.05;;;;;;;0.75;100.00;99538.88;4967414;28;20041;-67
2020/12/11 04:29:37;;;;;;;36.75;15.57;;;;;;;0.73;100.00;99524.97;4970075;28;20063;-67
2020/12/11 04:32:02;;;;;;;35.28;15.48;;;;;;;0.77;100.00;99523.72;4969015;28;20478;-67
2020/12/11 04:34:28;;;;;;;37.42;15.95;;;;;;;0.84;100.00;99516.09;4969489;28;20114;-67
2020/12/11 04:36:55;;;;;;;32.35;14.27;;;;;;;0.86;100.00;99515.97;4968383;28;20573;-67
2020/12/11 04:39:22;;;;;;;28.52;13.52;;;;;;;0.94;100.00;99510.81;4969426;28;20089;-67
2020/12/11 04:41:50;;;;;;;32.03;14.43;;;;;;;0.94;100.00;99502.91;4968909;28;20049;-67
2020/12/11 04:44:16;;;;;;;35.05;14.65;;;;;;;1.00;100.00;99490.00;4969502;28;20090;-67
2020/12/11 04:46:41;;;;;;;32.28;14.70;;;;;;;0.95;100.00;99489.53;4968486;28;20031;-67
2020/12/11 04:49:08;;;;;;;41.38;17.52;;;;;;;0.94;100.00;99481.78;4969558;28;20090;-67
2020/12/11 04:51:34;;;;;;;34.38;14.88;;;;;;;0.91;100.00;99476.78;4968609;28;20035;-67
2020/12/11 04:54:02;;;;;;;34.55;15.90;;;;;;;0.93;100.00;99474.84;4969264;28;20035;-67
2020/12/11 04:56:30;;;;;;;40.45;16.25;;;;;;;0.94;100.00;99471.22;4955609;28;20035;-67
2020/12/11 04:58:56;;;;;;;37.92;15.48;;;;;;;0.98;100.00;99467.31;4969087;28;20449;-67
2020/12/11 05:01:29;;;;;;;36.55;15.95;;;;;;;0.99;100.00;99459.25;4968766;28;20041;-67
2020/12/11 05:03:56;;;;;;;36.20;16.23;;;;;;;1.03;100.00;99462.47;4968845;28;20527;-67
2020/12/11 05:06:23;;;;;;;36.88;15.65;;;;;;;1.03;100.00;99462.47;4967892;28;20506;-67
2020/12/11 05:08:48;;;;;;;35.25;16.88;;;;;;;1.09;100.00;99459.25;4968771;28;20030;-67
2020/12/11 05:11:27;;;;;;;36.15;14.98;;;;;;;1.08;100.00;99454.13;4968619;28;20073;-67
2020/12/11 05:13:53;;;;;;;35.35;15.30;;;;;;;1.11;100.00;99451.22;4969135;28;20034;-67
2020/12/11 05:16:21;;;;;;;34.83;15.45;;;;;;;1.17;100.00;99448.00;4968372;28;20047;-67
2020/12/11 05:18:47;;;;;;;35.45;14.95;;;;;;;1.22;100.00;99437.84;4967724;28;20041;-67
2020/12/11 05:21:14;;;;;;;38.80;16.02;;;;;;;1.17;100.00;99440.09;4969656;28;20041;-67
2020/12/11 05:23:55;;;;;;;41.97;15.75;;;;;;;1.12;100.00;99437.84;4972283;28;20579;-68
2020/12/11 05:26:21;;;;;;;41.08;17.40;;;;;;;1.13;100.00;99433.41;4972049;28;20035;-68
2020/12/11 05:28:47;;;;;;;33.53;15.70;;;;;;;1.14;100.00;99430.63;4973062;28;20026;-67
2020/12/11 05:31:14;;;;;;;34.17;15.55;;;;;;;1.17;100.00;99437.44;4972746;28;20514;-68
2020/12/11 05:34:01;;;;;;;35.08;15.30;;;;;;;1.19;100.00;99431.03;4971690;28;20509;-68
2020/12/11 05:36:27;;;;;;;34.05;15.80;;;;;;;1.22;100.00;99420.19;4972517;28;20046;-68
2020/12/11 05:38:52;;;;;;;38.55;15.50;;;;;;;1.24;100.00;99414.75;4972417;28;20035;-67
2020/12/11 05:41:34;;;;;;;36.75;14.95;;;;;;;1.26;100.00;99416.28;4972257;28;20123;-67
2020/12/11 05:43:59;;;;;;;34.97;14.73;;;;;;;1.27;100.00;99410.03;4972309;28;20026;-67
2020/12/11 05:46:32;;;;;;;36.13;16.35;;;;;;;1.31;100.00;99401.84;4971333;28;20395;-67
2020/12/11 05:48:58;;;;;;;38.15;16.80;;;;;;;1.33;100.00;99400.69;4972593;28;20035;-67
2020/12/11 05:51:33;;;;;;;32.70;14.25;;;;;;;1.38;100.00;99398.47;4972265;28;20101;-68
2020/12/11 05:54:02;;;;;;;;;;;;;;;1.38;100.00;99392.34;4972992;28;20526;-68
2020/12/11 05:56:28;;;;;;;35.45;15.02;;;;;;;1.42;100.00;99396.38;4971775;28;19913;-68
2020/12/11 05:58:54;;;;;;;33.38;13.82;;;;;;;1.44;100.00;99387.31;4971940;28;20386;-68
2020/12/11 06:01:21;;;;;;;40.60;16.52;;;;;;;1.46;100.00;99382.72;4972204;28;20129;-67
2020/12/11 06:03:50;;;;;;;36.15;15.30;;;;;;;1.49;100.00;99377.16;4972148;28;20053;-68
2020/12/11 06:06:17;;;;;;;34.63;14.80;;;;;;;1.48;100.00;99374.66;4959852;28;20031;-69
2020/12/11 06:08:44;;;;;;;33.72;15.00;;;;;;;1.43;100.00;99375.09;4972374;28;20037;-67
2020/12/11 06:11:20;;;;;;;32.53;15.20;;;;;;;1.44;100.00;99379.38;4972705;28;20031;-68
2020/12/11 06:13:56;;;;;;;30.73;13.45;;;;;;;1.44;100.00;99366.16;4972147;28;20042;-68
2020/12/11 06:16:24;;;;;;;34.35;14.88;;;;;;;1.42;100.00;99364.66;4972231;28;20033;-68
2020/12/11 06:19:02;;;;;;;28.92;13.48;;;;;;;1.42;100.00;99378.72;4972374;28;20496;-68
2020/12/11 06:21:28;;;;;;;34.72;14.52;;;;;;;1.46;100.00;99372.16;4972029;28;20085;-69
2020/12/11 06:23:53;;;;;;;30.27;13.63;;;;;;;1.48;100.00;99369.38;4971772;28;20491;-68
2020/12/11 06:26:19;;;;;;;30.45;14.23;;;;;;;1.51;100.00;99374.38;4972156;28;20030;-68
2020/12/11 06:28:48;;;;;;;36.15;14.15;;;;;;;1.57;100.00;99371.16;4972028;28;20030;-68
2020/12/11 06:31:16;;;;;;;30.00;12.52;;;;;;;1.60;100.00;99365.56;4972434;28;20041;-68
2020/12/11 06:33:46;;;;;;;34.65;14.02;;;;;;;1.67;100.00;99360.53;4971407;28;20030;-68
2020/12/11 06:36:13;;;;;;;33.78;13.85;;;;;;;1.68;100.00;99349.81;4971759;28;20518;-68
2020/12/11 06:38:53;;;;;;;30.90;13.38;;;;;;;1.72;100.00;99350.38;4971176;28;20507;-68
2020/12/11 06:41:28;;;;;;;28.30;12.30;;;;;;;1.72;100.00;99345.91;4971570;28;20651;-68
2020/12/11 06:43:55;;;;;;;28.42;12.05;;;;;;;1.76;100.00;99341.16;4971454;28;20042;-68
2020/12/11 06:46:23;;;;;;;25.05;11.18;;;;;;;1.85;100.00;99339.44;4958155;28;20046;-68
2020/12/11 06:49:08;;;;;;;22.67;10.80;;;;;;;1.84;100.00;99327.19;4971654;28;20434;-68
2020/12/11 06:51:45;;;;;;;24.38;10.80;;;;;;;1.78;100.00;99324.16;4959048;28;20037;-68
2020/12/11 06:54:20;;;;;;;24.85;10.98;;;;;;;1.76;100.00;99331.41;4971248;28;20096;-68
2020/12/11 06:56:48;;;;;;;23.80;10.73;;;;;;;1.77;100.00;99322.50;4971474;28;20085;-68
2020/12/11 06:59:22;;;;;;;27.27;11.25;;;;;;;1.77;100.00;99324.31;4971108;28;20085;-68
2020/12/11 07:01:50;;;;;;;24.00;11.10;;;;;;;1.81;100.00;99326.53;4986521;28;20030;-68
2020/12/11 07:04:15;;;;;;;24.73;10.63;;;;;;;1.84;100.00;99335.94;4970959;28;20048;-68
2020/12/11 07:06:49;;;;;;;27.27;11.75;;;;;;;1.91;100.00;99329.09;4970788;28;20555;-68
2020/12/11 07:09:15;;;;;;;18.95;9.60;;;;;;;1.94;100.00;99317.38;4970287;28;20035;-68
2020/12/11 07:11:43;;;;;;;21.20;10.00;;;;;;;2.00;100.00;99311.50;4971247;28;20026;-69
2020/12/11 07:14:09;;;;;;;21.05;9.82;;;;;;;2.03;100.00;99309.41;4970795;28;20118;-68
2020/12/11 07:16:40;;;;;;;21.00;10.27;;;;;;;2.09;100.00;99302.66;4970772;28;20089;-68
2020/12/11 07:19:06;;;;;;;24.15;9.95;;;;;;;2.11;100.00;99302.50;4989175;28;20031;-68
2020/12/11 07:21:33;;;;;;;19.63;9.60;;;;;;;2.13;100.00;99297.91;4970768;28;20495;-67
2020/12/11 07:24:00;;;;;;;19.55;9.80;;;;;;;2.14;100.00;99304.88;4969892;28;20038;-67
2020/12/11 07:26:26;;;;;;;21.27;10.27;;;;;;;2.12;100.00;99296.25;4970804;28;20030;-68
2020/12/11 07:29:06;;;;;;;23.77;11.32;;;;;;;2.12;100.00;99293.63;4970753;28;20507;-68
2020/12/11 07:31:35;;;;;;;21.73;9.68;;;;;;;2.14;100.00;99291.66;4971481;28;20047;-68
2020/12/11 07:34:01;;;;;;;23.48;9.80;;;;;;;2.19;100.00;99274.34;4971339;28;20030;-68
2020/12/11 07:36:27;;;;;;;22.15;10.07;;;;;;;2.17;100.00;99275.47;4970390;28;20495;-68
2020/12/11 07:38:53;;;;;;;21.63;9.55;;;;;;;2.16;100.00;99277.28;4970902;28;20113;-68
2020/12/11 07:41:20;;;;;;;23.58;10.55;;;;;;;2.13;100.00;99259.06;4970759;28;20517;-68
2020/12/11 07:43:46;;;;;;;22.45;9.82;;;;;;;2.16;100.00;99263.22;4970810;28;20080;-68
2020/12/11 07:46:20;;;;;;;22.67;10.43;;;;;;;2.16;100.00;99257.91;4957213;28;20027;-68
2020/12/11 07:48:48;;;;;;;24.65;10.23;;;;;;;2.14;100.00;99260.72;4971105;28;20023;-68
2020/12/11 07:51:14;;;;;;;22.60;10.43;;;;;;;2.16;100.00;99258.78;4962549;28;20487;-69
2020/12/11 07:53:43;;;;;;;22.02;10.70;;;;;;;2.16;100.00;99255.28;4969148;28;20042;-69
2020/12/11 07:56:09;;;;;;;23.25;10.57;;;;;;;2.20;100.00;99262.75;4969003;28;20031;-68
2020/12/11 07:58:35;;;;;;;21.55;9.73;;;;;;;2.22;100.00;99257.34;4968679;28;20038;-68
2020/12/11 08:01:02;;;;;;;23.73;10.25;;;;;;;2.21;100.00;99251.22;4969023;28;20031;-68
2020/12/11 08:03:27;;;;;;;23.52;10.82;;;;;;;2.22;100.00;99252.03;4968523;28;20039;-68
2020/12/11 08:05:53;;;;;;;23.05;10.23;;;;;;;2.26;100.00;99251.59;4968393;28;20126;-69
2020/12/11 08:08:25;;;;;;;22.30;11.00;;;;;;;2.26;100.00;99250.72;4968408;28;20395;-68
2020/12/11 08:10:51;;;;;;;21.88;9.90;;;;;;;2.34;100.00;99243.72;4969034;28;20034;-69
2020/12/11 08:13:17;;;;;;;18.35;9.05;;;;;;;2.37;100.00;99245.22;4968764;28;20407;-69
2020/12/11 08:15:45;;;;;;;17.98;9.80;;;;;;;2.40;100.00;99241.44;4967941;28;20038;-68
2020/12/11 08:18:14;;;;;;;18.33;9.32;;;;;;;2.45;100.00;99236.50;4968401;28;20033;-69
2020/12/11 08:20:47;;;;;;;21.42;10.20;;;;;;;2.47;100.00;99231.91;4968329;28;20404;-69
2020/12/11 08:23:20;;;;;;;17.58;9.27;;;;;;;2.51;100.00;99230.59;4968440;28;20034;-69
2020/12/11 08:25:46;;;;;;;20.33;9.50;;;;;;;2.57;100.00;99225.53;4967996;28;20027;-70
2020/12/11 08:28:13;;;;;;;19.77;9.27;;;;;;;2.58;100.00;99229.00;4967569;28;20044;-69
2020/12/11 08:30:39;;;;;;;18.70;8.48;;;;;;;2.60;100.00;99224.38;4982717;28;20038;-68
2020/12/11 08:33:12;;;;;;;20.10;9.43;;;;;;;2.66;100.00;99222.91;4967154;28;20094;-69
2020/12/11 08:35:38;;;;;;;19.40;8.88;;;;;;;2.74;100.00;99220.34;4981853;28;20081;-69
2020/12/11 08:38:05;;;;;;;14.50;8.00;;;;;;;2.75;100.00;99222.81;4967654;28;20031;-69
2020/12/11 08:40:44;;;;;;;17.00;8.65;;;;;;;2.80;100.00;99222.34;4968459;28;20363;-69
2020/12/11 08:45:40;;;;;;;15.85;7.88;;;;;;;2.87;100.00;99223.41;4967797;28;20114;-68
2020/12/11 08:48:25;;;;;;;13.00;7.07;;;;;;;2.94;100.00;99221.78;4967144;28;20412;-69
2020/12/11 08:51:00;;;;;;;17.10;7.90;;;;;;;2.98;100.00;99215.19;4968351;28;20038;-68
2020/12/11 08:53:28;;;;;;;15.77;7.70;;;;;;;3.03;100.00;99214.72;4987859;28;20035;-69
2020/12/11 08:55:53;;;;;;;12.05;6.45;;;;;;;3.04;100.00;99219.03;4967646;28;20385;-68
2020/12/11 08:58:19;;;;;;;13.70;6.85;;;;;;;3.07;100.00;99224.03;4970741;28;20026;-69
2020/12/11 09:00:44;;;;;;;12.73;6.45;;;;;;;3.10;100.00;99218.38;4970947;28;20031;-69
2020/12/11 09:03:10;;;;;;;15.18;7.25;;;;;;;3.16;100.00;99219.56;4971368;28;20037;-69
2020/12/11 09:05:36;;;;;;;13.73;6.88;;;;;;;3.20;100.00;99220.91;4970860;28;20022;-69
2020/12/11 09:08:02;;;;;;;12.55;6.82;;;;;;;3.22;100.00;99217.13;4970702;28;20488;-69
2020/12/11 09:10:27;;;;;;;13.10;7.03;;;;;;;3.25;100.00;99208.84;4971026;28;20065;-69
2020/12/11 09:12:53;;;;;;;14.45;7.00;;;;;;;3.26;100.00;99213.19;4986446;28;20417;-70
2020/12/11 09:15:21;;;;;;;13.90;6.82;;;;;;;3.37;100.00;99214.72;4971157;28;20035;-69
2020/12/11 09:17:46;;;;;;;12.60;6.53;;;;;;;3.36;100.00;99208.59;4970705;28;20495;-69
2020/12/11 09:20:12;;;;;;;11.93;6.65;;;;;;;3.39;100.00;99202.13;4971312;28;20038;-69
2020/12/11 09:22:38;;;;;;;14.40;7.18;;;;;;;3.41;100.00;99208.09;4970903;28;20038;-69
2020/12/11 09:25:05;;;;;;;13.65;7.00;;;;;;;3.44;100.00;99199.81;4971393;28;20042;-69
2020/12/11 09:27:31;;;;;;;15.60;6.85;;;;;;;3.45;100.00;99205.94;4970029;28;20053;-69
2020/12/11 09:30:10;;;;;;;15.55;6.32;;;;;;;3.50;100.00;99198.34;4985925;28;20050;-69
2020/12/11 09:32:48;;;;;;;11.68;6.38;;;;;;;3.56;100.00;99195.88;4970407;28;20562;-70
2020/12/11 09:35:13;;;;;;;13.82;6.22;;;;;;;3.63;100.00;99199.56;4970119;28;20038;-69
2020/12/11 09:37:39;;;;;;;11.77;5.95;;;;;;;3.69;100.00;99194.59;4970232;28;20037;-70
2020/12/11 09:40:05;;;;;;;12.02;5.95;;;;;;;3.76;100.00;99198.25;4970705;28;20105;-70
2020/12/11 09:45:07;;;;;;;11.57;5.90;;;;;;;3.80;100.00;99203.06;4971226;28;20518;-70
2020/12/11 09:48:13;;;;;;;11.60;5.90;;;;;;;3.77;100.00;99198.09;4969896;28;20049;-69
2020/12/11 09:50:32;;;;;;;10.52;5.20;;;;;;;3.74;100.00;99197.59;4970704;28;20381;-69
2020/12/11 09:53:06;;;;;;;12.70;5.53;;;;;;;3.79;100.00;99190.78;4969851;28;20381;-69
2020/12/11 09:55:43;;;;;;;9.23;5.40;;;;;;;3.71;100.00;99189.94;4970700;28;20146;-69
2020/12/11 09:58:08;;;;;;;9.95;5.53;;;;;;;3.73;100.00;99178.19;4956987;28;20027;-69
2020/12/11 10:00:34;;;;;;;10.70;5.30;;;;;;;3.69;100.00;99186.63;4970206;28;20399;-70
2020/12/11 10:03:07;;;;;;;12.57;6.28;;;;;;;3.68;100.00;99179.69;4970335;28;20038;-71
2020/12/11 10:05:32;;;;;;;9.15;5.68;;;;;;;3.64;100.00;99173.84;4984786;28;20031;-72
2020/12/11 10:07:58;;;;;;;10.70;5.40;;;;;;;3.67;100.00;99167.41;4969832;28;20499;-72
2020/12/11 10:10:23;;;;;;;11.23;6.20;;;;;;;3.66;100.00;99179.00;4970087;28;20038;-69
2020/12/11 10:12:50;;;;;;;12.68;6.13;;;;;;;3.68;100.00;99167.25;4970161;28;20034;-69
2020/12/11 10:15:20;;;;;;;13.43;5.60;;;;;;;3.66;100.00;99165.72;4970552;28;20121;-69
2020/12/11 10:17:47;;;;;;;13.73;6.00;;;;;;;3.71;100.00;99156.28;4970163;28;20265;-70
2020/12/11 10:20:18;;;;;;;10.82;5.78;;;;;;;3.73;100.00;99156.97;4970923;28;20027;-70
2020/12/11 10:22:46;;;;;;;16.95;6.93;;;;;;;3.73;100.00;99151.66;4984949;28;20034;-70
2020/12/11 10:25:12;;;;;;;10.90;5.88;;;;;;;3.72;100.00;99147.38;4969938;28;20117;-70
2020/12/11 10:27:38;;;;;;;12.38;6.15;;;;;;;3.73;100.00;99142.88;4969315;28;20035;-71
2020/12/11 10:30:04;;;;;;;13.18;6.03;;;;;;;3.70;100.00;99137.91;4970029;28;20084;-74
2020/12/11 10:32:29;;;;;;;12.93;6.25;;;;;;;3.68;100.00;99142.53;4969532;28;20598;-72
2020/12/11 10:34:55;;;;;;;11.95;6.07;;;;;;;3.68;100.00;99134.59;4970626;28;20042;-70
2020/12/11 10:37:20;;;;;;;14.38;6.53;;;;;;;3.71;100.00;99129.75;4970249;28;20034;-71
2020/12/11 10:39:46;;;;;;;12.38;6.43;;;;;;;3.70;100.00;99125.47;4969585;28;20027;-71
2020/12/11 10:42:11;;;;;;;11.60;5.95;;;;;;;3.73;100.00;99108.41;4969720;28;20031;-71
2020/12/11 10:44:37;;;;;;;16.92;6.57;;;;;;;3.78;100.00;99114.03;4970579;28;20411;-71
2020/12/11 10:47:03;;;;;;;12.77;6.40;;;;;;;3.77;100.00;99113.22;4969816;28;20169;-70
2020/12/11 10:49:28;;;;;;;12.90;5.82;;;;;;;3.83;100.00;99117.84;4970093;28;20414;-71
2020/12/11 10:51:54;;;;;;;15.05;6.68;;;;;;;3.86;100.00;99109.56;4969707;28;20567;-70
2020/12/11 10:54:22;;;;;;;17.23;7.10;;;;;;;3.89;100.00;99106.56;4969683;28;20483;-71
2020/12/11 10:56:47;;;;;;;12.70;6.35;;;;;;;3.95;100.00;99096.28;4969558;28;20034;-70
2020/12/11 10:59:14;;;;;;;12.98;6.25;;;;;;;4.03;100.00;99091.00;4968985;28;20042;-70
2020/12/11 11:01:40;;;;;;;15.43;6.78;;;;;;;4.07;100.00;99082.53;4969273;28;20035;-70
2020/12/11 11:04:07;;;;;;;13.05;6.13;;;;;;;4.15;100.00;99076.38;4970039;28;20098;-70
2020/12/11 11:06:38;;;;;;;16.10;6.13;;;;;;;4.16;100.00;99075.38;4969827;28;20030;-70
2020/12/11 11:11:41;;;;;;;11.73;5.70;;;;;;;4.14;100.00;99072.91;4968603;28;20054;-71
2020/12/11 11:16:50;;;;;;;12.20;5.80;;;;;;;4.19;100.00;99069.75;4984523;28;20038;-70
2020/12/11 11:19:27;;;;;;;11.13;6.35;;;;;;;4.22;100.00;99060.59;4956084;28;20027;-70
2020/12/11 11:22:09;;;;;;;11.27;6.00;;;;;;;4.23;100.00;99060.44;4969755;28;20031;-71
2020/12/11 11:25:09;;;;;;;13.52;6.07;;;;;;;4.25;100.00;99047.81;4969167;28;20114;-72
2020/12/11 11:27:39;;;;;;;11.00;5.45;;;;;;;4.27;100.00;99048.50;4968268;28;20052;-70
2020/12/11 11:30:04;;;;;;;10.52;5.22;;;;;;;4.29;100.00;99050.97;4968729;28;20045;-71